Time;durP1;ratioP1;P1;durP2;ratioP2;P2;SDS_P1;SDS_P2;PMS_P1;PMS_P2;Temp;Humidity;BMP_temperature;BMP_pressure;BME280_temperature;BME280_humidity;BME280_pressure;Samples;Min_cycle;Max_cycle;Signal;HPM_P1;HPM_P2
2022/08/17 00:01:56;;;;;;;12.32;7.20;;;18.80;93.10;;;;;;6157561;23;20010;-83
2022/08/17 00:04:22;;;;;;;11.40;6.40;;;18.80;92.60;;;;;;6160409;23;20036;-84
2022/08/17 00:06:48;;;;;;;12.43;7.00;;;18.80;92.90;;;;;;6159390;23;20005;-84
2022/08/17 00:09:14;;;;;;;12.93;6.50;;;18.80;91.80;;;;;;6161064;23;20005;-84
2022/08/17 00:11:43;;;;;;;12.18;7.10;;;18.80;92.60;;;;;;6157479;23;20006;-84
2022/08/17 00:14:12;;;;;;;9.88;6.35;;;18.80;92.60;;;;;;6160546;23;20010;-84
2022/08/17 00:16:42;;;;;;;9.95;6.68;;;18.80;92.60;;;;;;6159326;23;20052;-84
2022/08/17 00:19:11;;;;;;;13.82;6.80;;;18.80;92.30;;;;;;6158535;23;20002;-84
2022/08/17 00:21:41;;;;;;;13.40;7.25;;;18.80;92.40;;;;;;6161661;23;20434;-84
2022/08/17 00:24:07;;;;;;;11.52;5.97;;;18.80;92.50;;;;;;6157537;23;20084;-84
2022/08/17 00:26:34;;;;;;;11.27;6.47;;;18.80;92.50;;;;;;6159520;23;20002;-83
2022/08/17 00:29:00;;;;;;;11.82;7.00;;;18.80;92.10;;;;;;6158894;23;20001;-84
2022/08/17 00:31:25;;;;;;;10.90;6.85;;;18.80;91.90;;;;;;6159763;23;20061;-83
2022/08/17 00:33:51;;;;;;;11.18;7.00;;;18.80;91.80;;;;;;6158898;23;19997;-83
2022/08/17 00:36:35;;;;;;;10.95;6.35;;;18.80;91.80;;;;;;6159361;23;20444;-83
2022/08/17 00:39:01;;;;;;;12.15;7.53;;;18.80;91.80;;;;;;6157299;23;20468;-83
2022/08/17 00:41:28;;;;;;;12.18;6.70;;;18.80;92.00;;;;;;6158739;23;20033;-84
2022/08/17 00:44:41;;;;;;;11.13;7.35;;;18.70;91.50;;;;;;6158048;23;20009;-84
2022/08/17 00:47:06;;;;;;;13.07;7.28;;;18.70;91.60;;;;;;6158980;23;20021;-84
2022/08/17 00:49:32;;;;;;;11.48;6.32;;;18.70;90.70;;;;;;6157403;23;20024;-83
2022/08/17 00:52:07;;;;;;;15.63;7.18;;;18.70;89.80;;;;;;6156763;23;20012;-83
2022/08/17 00:54:36;;;;;;;10.85;6.47;;;18.70;90.10;;;;;;6160281;23;20092;-84
2022/08/17 00:57:20;;;;;;;10.32;6.82;;;18.70;89.20;;;;;;6158619;23;20001;-84
2022/08/17 00:59:49;;;;;;;13.13;6.78;;;18.70;89.60;;;;;;6159426;23;20017;-83
2022/08/17 01:02:16;;;;;;;13.23;7.23;;;18.70;88.20;;;;;;6158948;23;20020;-83
2022/08/17 01:07:33;;;;;;;11.63;6.38;;;18.50;88.80;;;;;;6159356;23;20687;-83
2022/08/17 01:10:02;;;;;;;13.73;6.68;;;18.50;88.60;;;;;;6157776;23;20007;-83
2022/08/17 01:12:28;;;;;;;12.80;6.75;;;18.50;88.30;;;;;;6157800;23;20001;-82
2022/08/17 01:14:53;;;;;;;12.32;6.97;;;18.40;87.60;;;;;;6157206;23;20331;-83
2022/08/17 01:17:19;;;;;;;10.00;6.80;;;18.50;87.10;;;;;;6156425;23;20044;-83
2022/08/17 01:19:45;;;;;;;12.45;6.80;;;18.50;87.20;;;;;;6158815;23;20445;-83
2022/08/17 01:22:10;;;;;;;11.13;6.68;;;18.50;87.80;;;;;;6158869;23;20002;-82
2022/08/17 01:24:41;;;;;;;11.77;6.82;;;18.50;87.40;;;;;;6157860;23;20029;-83
2022/08/17 01:27:08;;;;;;;9.80;6.38;;;18.50;87.70;;;;;;6158708;23;20008;-83
2022/08/17 01:29:36;;;;;;;10.20;6.28;;;18.40;87.20;;;;;;6157022;23;20006;-83
2022/08/17 01:32:04;;;;;;;11.85;6.55;;;18.50;86.80;;;;;;6156538;23;20002;-82
2022/08/17 01:34:31;;;;;;;12.77;6.65;;;18.40;87.00;;;;;;6157024;23;20006;-82
2022/08/17 01:36:57;;;;;;;12.32;6.63;;;18.40;87.10;;;;;;6158246;23;20006;-83
2022/08/17 01:39:23;;;;;;;10.82;6.60;;;18.40;87.10;;;;;;6159246;23;20006;-83
2022/08/17 01:41:52;;;;;;;17.83;6.50;;;18.40;87.20;;;;;;6158538;23;20012;-82
2022/08/17 01:44:19;;;;;;;11.57;6.85;;;18.40;86.60;;;;;;6158750;23;20013;-82
2022/08/17 01:46:45;;;;;;;11.55;6.38;;;18.30;87.10;;;;;;6156198;23;20024;-82
2022/08/17 01:49:11;;;;;;;10.48;6.80;;;18.30;87.40;;;;;;6158092;23;20002;-83
2022/08/17 01:51:38;;;;;;;15.20;7.95;;;18.30;87.20;;;;;;6158078;23;19994;-82
2022/08/17 01:54:07;;;;;;;11.93;6.82;;;18.30;86.70;;;;;;6156715;23;20002;-82
2022/08/17 01:56:35;;;;;;;12.55;6.78;;;18.30;86.60;;;;;;6157533;23;20012;-82
2022/08/17 01:59:01;;;;;;;10.45;6.50;;;18.30;87.30;;;;;;6156942;23;20341;-83
2022/08/17 02:01:30;;;;;;;10.52;6.88;;;18.30;87.00;;;;;;6157976;23;20009;-83
2022/08/17 02:03:56;;;;;;;10.30;6.53;;;18.30;86.70;;;;;;6159410;23;20477;-83
2022/08/17 02:06:22;;;;;;;10.32;6.50;;;18.30;86.90;;;;;;6156091;23;20430;-84
2022/08/17 02:08:48;;;;;;;10.63;6.93;;;18.30;86.70;;;;;;6158139;23;20462;-83
2022/08/17 02:11:17;;;;;;;13.10;7.47;;;18.30;86.70;;;;;;6157822;23;20001;-83
2022/08/17 02:13:57;;;;;;;10.50;7.07;;;18.30;86.50;;;;;;5075411;28;20391;-82
2022/08/17 02:16:22;;;;;;;12.65;6.47;;;18.20;85.90;;;;;;5072697;28;20071;-82
2022/08/17 02:18:51;;;;;;;12.02;7.28;;;18.30;86.50;;;;;;5074971;28;20107;-81
2022/08/17 02:21:16;;;;;;;11.23;6.63;;;18.20;86.30;;;;;;5093719;28;20483;-82
2022/08/17 02:23:46;;;;;;;11.40;7.40;;;18.10;86.00;;;;;;5068987;28;20048;-82
2022/08/17 02:26:12;;;;;;;12.60;6.97;;;18.10;86.30;;;;;;5072954;28;20572;-81
2022/08/17 02:28:37;;;;;;;10.25;7.10;;;18.20;85.80;;;;;;5071936;28;20091;-82
2022/08/17 02:31:06;;;;;;;12.18;6.53;;;18.20;86.10;;;;;;5055325;28;20033;-81
2022/08/17 02:33:32;;;;;;;11.30;7.03;;;18.10;86.30;;;;;;5072794;28;20086;-82
2022/08/17 02:36:05;;;;;;;12.38;7.15;;;18.10;86.20;;;;;;5072555;28;20025;-81
2022/08/17 02:38:31;;;;;;;8.98;6.47;;;18.10;86.40;;;;;;5054977;28;20016;-81
2022/08/17 02:41:00;;;;;;;11.60;6.28;;;18.10;86.10;;;;;;5080105;28;20039;-81
2022/08/17 02:43:27;;;;;;;11.23;6.40;;;18.00;86.20;;;;;;5092548;28;20051;-81
2022/08/17 02:45:54;;;;;;;9.63;6.80;;;18.00;85.70;;;;;;5073589;28;20024;-81
2022/08/17 02:48:20;;;;;;;9.90;6.32;;;18.00;86.10;;;;;;5055449;28;20151;-81
2022/08/17 02:50:46;;;;;;;11.68;7.20;;;18.00;85.90;;;;;;5089578;28;20068;-81
2022/08/17 02:53:12;;;;;;;10.98;6.47;;;18.10;86.10;;;;;;5074334;28;20557;-81
2022/08/17 02:55:40;;;;;;;12.57;7.00;;;18.00;86.00;;;;;;5074817;28;20020;-82
2022/08/17 02:58:07;;;;;;;11.55;7.30;;;18.00;85.90;;;;;;5056747;28;20021;-82
2022/08/17 03:00:36;;;;;;;13.15;7.00;;;18.00;85.40;;;;;;5072101;28;20035;-82
2022/08/17 03:03:04;;;;;;;8.82;6.28;;;18.00;85.90;;;;;;5053334;28;20029;-82
2022/08/17 03:05:32;;;;;;;11.65;6.75;;;18.10;85.40;;;;;;5055037;28;20037;-82
2022/08/17 03:07:58;;;;;;;10.15;6.53;;;18.10;84.80;;;;;;5071780;28;20060;-81
2022/08/17 03:10:24;;;;;;;9.93;6.85;;;18.10;85.20;;;;;;5097221;28;20033;-82
2022/08/17 03:12:51;;;;;;;10.50;6.43;;;18.10;84.80;;;;;;5090629;28;20118;-81
2022/08/17 03:15:21;;;;;;;12.32;6.80;;;18.00;85.00;;;;;;5053996;28;20369;-82
2022/08/17 03:17:47;;;;;;;11.05;6.88;;;18.00;84.90;;;;;;5083543;28;20020;-82
2022/08/17 03:20:15;;;;;;;13.70;6.75;;;18.00;84.50;;;;;;5052610;28;20123;-81
2022/08/17 03:22:43;;;;;;;10.13;6.85;;;18.00;85.00;;;;;;5072547;28;20033;-81
2022/08/17 03:25:11;;;;;;;10.45;7.10;;;18.00;84.90;;;;;;5059357;28;20116;-82
2022/08/17 03:27:37;;;;;;;10.80;6.88;;;17.90;84.70;;;;;;5041047;28;20029;-81
2022/08/17 03:30:05;;;;;;;11.75;6.63;;;17.90;84.80;;;;;;5040449;28;20029;-82
2022/08/17 03:32:40;;;;;;;12.20;7.57;;;17.90;84.90;;;;;;5058086;28;20048;-81
2022/08/17 03:35:07;;;;;;;13.70;7.05;;;17.90;85.00;;;;;;5078716;28;20036;-82
2022/08/17 03:37:33;;;;;;;12.40;6.90;;;17.90;84.70;;;;;;5077403;28;20028;-82
2022/08/17 03:39:58;;;;;;;14.20;7.28;;;17.90;84.60;;;;;;5078158;28;20020;-82
2022/08/17 03:42:26;;;;;;;11.70;7.57;;;17.90;84.40;;;;;;5041413;28;20044;-82
2022/08/17 03:44:53;;;;;;;14.07;8.30;;;17.90;84.60;;;;;;5040674;28;20036;-82
2022/08/17 03:58:22;;;;;;;15.50;8.23;;;17.80;84.70;;;;;;5057418;28;20496;-82
2022/08/17 04:00:48;;;;;;;14.77;7.95;;;17.80;84.60;;;;;;5057638;28;20074;-82
2022/08/17 04:03:14;;;;;;;16.27;8.35;;;17.80;85.10;;;;;;5058426;28;20112;-81
2022/08/17 04:05:40;;;;;;;12.43;7.55;;;17.80;85.00;;;;;;5039842;28;20118;-83
2022/08/17 04:08:07;;;;;;;15.00;7.28;;;17.80;84.60;;;;;;5040786;28;20071;-82
2022/08/17 04:10:35;;;;;;;10.95;7.10;;;17.80;84.60;;;;;;5057546;28;20021;-83
2022/08/17 04:13:01;;;;;;;12.20;6.75;;;17.80;84.40;;;;;;5039958;28;20044;-82
2022/08/17 04:15:28;;;;;;;16.83;7.00;;;17.90;84.30;;;;;;5056273;28;20036;-82
2022/08/17 04:17:54;;;;;;;11.40;6.97;;;17.90;84.00;;;;;;5058205;28;20036;-82
2022/08/17 04:20:22;;;;;;;13.73;6.90;;;17.90;83.70;;;;;;5060251;28;20033;-82
2022/08/17 04:23:05;;;;;;;14.30;8.18;;;17.90;83.70;;;;;;5057674;28;20496;-82
2022/08/17 04:25:33;;;;;;;14.10;7.80;;;17.90;83.60;;;;;;5039823;28;20095;-82
2022/08/17 04:27:59;;;;;;;12.75;7.15;;;17.90;83.40;;;;;;5039311;28;20074;-83
2022/08/17 04:30:27;;;;;;;12.50;7.63;;;17.90;83.40;;;;;;5058198;28;20096;-82
2022/08/17 04:32:55;;;;;;;16.30;8.23;;;17.90;83.20;;;;;;5038262;28;20445;-82
2022/08/17 04:35:32;;;;;;;12.80;6.55;;;17.90;83.20;;;;;;5055679;28;20029;-82
2022/08/17 04:37:58;;;;;;;13.68;7.72;;;17.90;83.20;;;;;;5057443;28;20489;-82
2022/08/17 04:43:12;;;;;;;14.27;8.05;;;17.90;83.50;;;;;;5057903;28;20167;-82
2022/08/17 04:45:57;;;;;;;12.95;7.75;;;17.90;83.60;;;;;;5056972;28;20606;-82
2022/08/17 04:48:26;;;;;;;17.33;7.45;;;17.80;83.80;;;;;;5057450;28;20497;-82
2022/08/17 04:50:51;;;;;;;15.05;8.05;;;17.80;84.00;;;;;;5056833;28;20048;-83
2022/08/17 04:53:18;;;;;;;19.27;8.57;;;17.80;84.10;;;;;;5055821;28;20036;-82
2022/08/17 04:55:44;;;;;;;20.67;9.70;;;17.90;84.10;;;;;;5041592;28;20048;-81
2022/08/17 04:58:10;;;;;;;19.92;10.38;;;17.80;84.30;;;;;;5058699;28;20541;-84
2022/08/17 05:00:36;;;;;;;23.73;10.05;;;17.90;84.70;;;;;;5059899;28;20028;-82
2022/08/17 05:03:03;;;;;;;21.60;10.55;;;18.00;84.80;;;;;;5073680;28;20756;-83
2022/08/17 05:05:32;;;;;;;20.35;10.02;;;18.00;84.90;;;;;;5070016;28;20028;-83
2022/08/17 05:08:00;;;;;;;17.05;8.77;;;18.10;84.70;;;;;;5053532;28;20024;-83
2022/08/17 05:10:28;;;;;;;24.00;9.35;;;18.10;84.60;;;;;;5089872;28;20036;-85
2022/08/17 05:13:04;;;;;;;19.88;9.68;;;18.10;84.50;;;;;;5096684;28;20376;-84
2022/08/17 05:15:30;;;;;;;15.00;9.40;;;18.20;84.40;;;;;;5076652;28;20040;-82
2022/08/17 05:17:56;;;;;;;15.90;8.50;;;18.20;84.40;;;;;;5039434;28;20030;-84
2022/08/17 05:20:23;;;;;;;19.42;8.80;;;18.20;84.30;;;;;;5058692;28;20050;-83
2022/08/17 05:23:00;;;;;;;15.15;8.30;;;18.20;84.40;;;;;;5076374;28;20027;-83
2022/08/17 05:25:32;;;;;;;16.08;9.07;;;18.20;84.40;;;;;;5054469;28;20036;-83
2022/08/17 05:27:57;;;;;;;16.77;8.68;;;18.10;84.50;;;;;;5055285;28;20036;-86
2022/08/17 05:30:25;;;;;;;16.58;8.82;;;18.20;84.40;;;;;;5039253;28;20029;-86
2022/08/17 05:32:52;;;;;;;17.90;8.60;;;18.10;84.30;;;;;;5056525;28;20029;-85
2022/08/17 05:35:18;;;;;;;17.85;9.43;;;18.20;84.30;;;;;;5052008;28;20024;-86
2022/08/17 05:37:44;;;;;;;18.35;9.23;;;18.10;84.40;;;;;;5056056;28;20024;-85
2022/08/17 05:40:10;;;;;;;17.98;9.55;;;18.20;84.30;;;;;;5053471;28;20741;-85
2022/08/17 05:42:36;;;;;;;24.17;9.40;;;18.20;84.40;;;;;;5074050;28;20029;-85
2022/08/17 05:45:01;;;;;;;17.60;9.95;;;18.20;84.40;;;;;;5057388;28;20082;-86
2022/08/17 05:47:29;;;;;;;20.65;8.90;;;18.20;84.40;;;;;;5056370;28;20115;-85
2022/08/17 05:49:54;;;;;;;22.90;9.30;;;18.20;84.50;;;;;;5075063;28;20050;-85
2022/08/17 05:52:54;;;;;;;17.70;8.80;;;18.20;84.50;;;;;;5075776;28;20028;-86
2022/08/17 05:56:11;;;;;;;20.58;9.63;;;18.20;84.30;;;;;;5041705;28;20037;-86
2022/08/17 05:59:03;;;;;;;17.60;9.07;;;18.20;84.60;;;;;;4974512;28;20086;-87
2022/08/17 06:02:07;;;;;;;19.77;8.85;;;18.30;84.40;;;;;;5050087;28;20044;-84
2022/08/17 06:04:38;;;;;;;23.20;9.73;;;18.30;84.40;;;;;;4993200;28;20036;-84
2022/08/17 06:07:24;;;;;;;21.38;10.38;;;18.40;84.40;;;;;;4975694;28;20035;-85
2022/08/17 06:09:57;;;;;;;20.40;10.20;;;18.50;84.30;;;;;;5042780;28;20071;-85
2022/08/17 06:12:55;;;;;;;20.73;10.52;;;18.50;84.30;;;;;;5054905;28;20052;-83
2022/08/17 06:15:38;;;;;;;21.73;8.90;;;18.60;84.20;;;;;;5034713;28;20593;-85
2022/08/17 06:18:08;;;;;;;20.13;9.48;;;18.70;83.60;;;;;;5072172;28;20027;-83
2022/08/17 06:20:47;;;;;;;19.15;9.23;;;18.80;83.50;;;;;;5074421;28;20013;-84
2022/08/17 06:23:35;;;;;;;21.92;10.45;;;18.90;83.20;;;;;;5069119;28;20028;-84
2022/08/17 06:26:10;;;;;;;19.70;8.95;;;19.00;83.10;;;;;;5072591;28;20032;-84
2022/08/17 06:28:47;;;;;;;20.13;10.00;;;19.10;82.90;;;;;;5072813;28;20028;-84
2022/08/17 06:31:28;;;;;;;24.17;10.02;;;19.20;82.70;;;;;;5069195;28;20036;-84
2022/08/17 06:33:56;;;;;;;17.50;8.68;;;19.30;82.40;;;;;;5072323;28;20029;-84
2022/08/17 06:36:28;;;;;;;13.73;7.78;;;19.50;81.90;;;;;;5074172;28;20111;-84
2022/08/17 06:39:10;;;;;;;17.23;7.93;;;19.60;81.80;;;;;;5052725;28;20033;-84
2022/08/17 06:41:48;;;;;;;14.35;8.13;;;19.60;81.50;;;;;;5073481;28;20103;-84
2022/08/17 06:44:19;;;;;;;14.50;7.50;;;19.70;81.20;;;;;;5057053;28;20032;-84
2022/08/17 06:46:49;;;;;;;24.90;8.63;;;19.70;81.40;;;;;;5057420;28;20052;-85
2022/08/17 06:49:15;;;;;;;;;;;19.70;81.40;;;;;;5062960;28;20037;-84
2022/08/17 06:52:05;;;;;;;16.77;8.45;;;19.70;81.80;;;;;;5057133;28;19913;-84
2022/08/17 06:57:37;;;;;;;16.90;8.82;;;19.60;82.00;;;;;;5064899;28;20129;-84
2022/08/17 07:00:12;;;;;;;17.33;9.40;;;19.40;82.50;;;;;;5065368;28;20021;-84
2022/08/17 07:02:55;;;;;;;17.55;8.98;;;19.30;82.60;;;;;;5074880;28;20124;-84
2022/08/17 07:05:44;;;;;;;17.02;8.55;;;19.30;82.60;;;;;;5074369;28;20487;-84
2022/08/17 07:08:34;;;;;;;19.75;8.77;;;19.40;82.50;;;;;;5077044;28;20044;-83
2022/08/17 07:11:08;;;;;;;18.40;8.65;;;19.50;82.60;;;;;;5074797;28;20154;-83
2022/08/17 07:13:46;;;;;;;16.00;8.27;;;19.60;82.60;;;;;;5065416;28;20040;-83
2022/08/17 07:16:29;;;;;;;13.77;8.82;;;19.60;82.40;;;;;;5075375;28;20094;-84
2022/08/17 07:18:57;;;;;;;14.60;7.93;;;19.70;82.20;;;;;;5048647;28;20029;-83
2022/08/17 07:21:45;;;;;;;14.45;8.40;;;19.80;82.30;;;;;;5040843;28;20025;-83
2022/08/17 07:24:56;;;;;;;15.30;8.43;;;19.80;82.20;;;;;;5078407;28;20138;-84
2022/08/17 07:27:23;;;;;;;;;;;20.30;81.20;;;;;;5036045;28;20089;-82
2022/08/17 07:30:05;;;;;;;19.73;8.05;;;20.50;80.80;;;;;;5060937;28;20035;-88
2022/08/17 07:32:36;;;;;;;14.18;7.82;;;20.70;80.40;;;;;;5063034;28;20025;-82
2022/08/17 07:35:07;;;;;;;15.55;8.13;;;20.80;79.90;;;;;;5078299;28;20016;-83
2022/08/17 07:37:33;;;;;;;15.65;7.90;;;20.90;79.50;;;;;;5077039;28;20039;-85
2022/08/17 07:40:15;;;;;;;17.70;7.90;;;20.90;79.30;;;;;;5074758;28;20389;-86
2022/08/17 07:42:40;;;;;;;11.55;6.90;;;21.10;79.20;;;;;;5057025;28;20506;-87
2022/08/17 07:48:17;;;;;;;10.80;5.85;;;21.90;77.60;;;;;;5070332;28;20396;-84
2022/08/17 07:50:38;;;;;;;7.72;5.45;;;23.90;72.80;;;;;;5059165;28;20636;-85
2022/08/17 07:53:21;;;;;;;6.90;4.78;;;25.60;68.40;;;;;;5061058;28;20032;-88
2022/08/17 07:55:49;;;;;;;5.65;3.78;;;26.80;62.90;;;;;;5085314;28;20020;-88
2022/08/17 07:58:17;;;;;;;5.50;3.67;;;28.30;58.50;;;;;;5079994;28;20024;-85
2022/08/17 08:00:44;;;;;;;4.53;3.22;;;29.50;57.20;;;;;;5093222;28;20505;-85
2022/08/17 08:03:21;;;;;;;4.30;3.53;;;28.20;57.00;;;;;;5050240;28;20090;-87
2022/08/17 08:06:00;;;;;;;6.50;3.38;;;27.30;60.30;;;;;;5075300;28;20035;-86
2022/08/17 08:08:25;;;;;;;6.40;3.65;;;27.40;59.40;;;;;;5068947;28;20043;-86
2022/08/17 08:11:07;;;;;;;4.35;3.15;;;27.90;58.90;;;;;;5065025;28;20025;-85
2022/08/17 08:13:34;;;;;;;4.78;3.67;;;29.70;53.70;;;;;;5068165;28;20072;-86
2022/08/17 08:16:18;;;;;;;4.68;3.20;;;30.60;53.30;;;;;;5074288;28;20033;-86
2022/08/17 08:18:47;;;;;;;4.75;3.45;;;29.80;53.90;;;;;;5065456;28;20028;-86
2022/08/17 08:21:35;;;;;;;5.25;3.95;;;28.30;56.90;;;;;;5062487;28;20020;-85
2022/08/17 08:24:28;;;;;;;5.40;4.00;;;26.80;58.70;;;;;;5019751;28;20040;-85
2022/08/17 08:27:31;;;;;;;8.20;4.93;;;25.60;62.70;;;;;;5065618;28;20036;-86
2022/08/17 08:30:17;;;;;;;6.60;4.25;;;24.60;66.10;;;;;;5057491;28;20029;-85
2022/08/17 08:33:09;;;;;;;6.03;3.97;;;23.80;68.40;;;;;;5045937;28;20031;-86
2022/08/17 08:35:57;;;;;;;8.20;3.00;;;23.30;69.30;;;;;;5060833;28;20055;-86
2022/08/17 08:38:26;;;;;;;4.10;3.10;;;22.80;70.40;;;;;;5059587;28;20024;-85
2022/08/17 08:41:32;;;;;;;3.90;2.83;;;22.50;71.70;;;;;;5066084;28;20029;-85
2022/08/17 08:44:01;;;;;;;5.60;2.80;;;22.20;71.90;;;;;;5056840;28;20979;-85
2022/08/17 08:46:48;;;;;;;5.90;3.67;;;21.90;73.40;;;;;;5037892;28;20090;-87
2022/08/17 08:49:27;;;;;;;6.10;3.67;;;21.70;73.80;;;;;;5039200;28;20079;-85
2022/08/17 08:51:58;;;;;;;8.32;4.43;;;21.50;74.90;;;;;;5066061;28;20108;-87
2022/08/17 08:54:36;;;;;;;7.10;4.30;;;21.40;75.30;;;;;;5058504;28;20082;-85
2022/08/17 08:57:20;;;;;;;5.78;3.83;;;21.30;75.80;;;;;;5062100;28;20041;-86
2022/08/17 08:59:51;;;;;;;7.28;4.57;;;21.30;76.40;;;;;;5078922;28;20360;-86
2022/08/17 09:02:44;;;;;;;7.72;4.78;;;21.20;76.50;;;;;;5075248;28;20107;-87
2022/08/17 09:05:31;;;;;;;12.85;5.68;;;21.10;76.80;;;;;;5051376;28;20035;-87
2022/08/17 09:08:19;;;;;;;7.97;5.28;;;21.10;77.10;;;;;;5074213;28;20033;-87
2022/08/17 09:10:59;;;;;;;7.55;4.50;;;21.00;77.30;;;;;;5072351;28;20020;-87
2022/08/17 09:13:45;;;;;;;10.07;5.75;;;20.90;77.50;;;;;;5057596;28;20048;-87
2022/08/17 09:16:19;;;;;;;11.45;5.68;;;20.80;78.00;;;;;;5058850;28;20032;-86
2022/08/17 09:18:53;;;;;;;8.30;4.90;;;20.80;78.30;;;;;;5042640;28;20058;-85
2022/08/17 09:21:20;;;;;;;9.80;6.07;;;20.80;78.30;;;;;;5073504;28;20016;-87
2022/08/17 09:24:01;;;;;;;9.48;5.80;;;20.90;78.30;;;;;;5068682;28;20029;-87
2022/08/17 09:26:30;;;;;;;12.85;6.55;;;20.90;78.40;;;;;;5059037;28;20112;-88
2022/08/17 09:29:02;;;;;;;10.95;6.25;;;20.90;78.60;;;;;;5069711;28;20586;-87
2022/08/17 09:31:36;;;;;;;13.30;6.40;;;20.80;78.60;;;;;;5073312;28;20025;-88
2022/08/17 09:34:08;;;;;;;9.25;5.68;;;20.80;79.20;;;;;;5056193;28;20059;-86
2022/08/17 09:36:58;;;;;;;11.50;6.28;;;20.80;78.80;;;;;;5076035;28;20016;-88
2022/08/17 09:39:37;;;;;;;12.75;7.65;;;20.80;78.90;;;;;;5055613;28;20025;-88
2022/08/17 09:42:21;;;;;;;11.65;6.50;;;20.80;78.70;;;;;;5056011;28;20028;-88
2022/08/17 09:45:01;;;;;;;14.40;7.20;;;20.80;78.80;;;;;;5045250;28;20160;-88
2022/08/17 09:47:58;;;;;;;10.88;7.03;;;20.70;78.60;;;;;;5055880;28;20033;-89
2022/08/17 09:50:33;;;;;;;12.10;6.22;;;20.70;78.60;;;;;;5055700;28;20059;-89
2022/08/17 09:53:00;;;;;;;9.63;5.82;;;20.60;78.30;;;;;;5038091;28;20120;-88
2022/08/17 09:55:41;;;;;;;9.43;5.90;;;20.60;78.70;;;;;;5050444;28;20498;-88
2022/08/17 09:58:39;;;;;;;12.05;6.18;;;20.50;78.80;;;;;;5064560;28;20028;-87
2022/08/17 10:01:38;;;;;;;11.07;6.05;;;20.60;78.70;;;;;;5020341;28;20044;-87
2022/08/17 10:04:31;;;;;;;9.97;6.10;;;20.70;78.70;;;;;;5061867;28;20501;-88
2022/08/17 10:07:13;;;;;;;11.88;6.38;;;20.70;78.50;;;;;;5067356;28;20032;-87
2022/08/17 10:09:38;;;;;;;10.73;5.80;;;20.70;78.60;;;;;;5074662;28;20060;-87
2022/08/17 10:12:30;;;;;;;11.68;6.20;;;20.70;78.50;;;;;;5072807;28;20040;-87
2022/08/17 10:15:08;;;;;;;11.75;6.32;;;20.80;78.50;;;;;;5060213;28;20491;-88
2022/08/17 10:18:11;;;;;;;9.85;5.85;;;20.80;78.40;;;;;;5072632;28;20059;-85
2022/08/17 10:26:11;;;;;;;7.85;5.35;;;20.80;78.20;;;;;;5064486;28;20074;-87
2022/08/17 10:26:38;;;;;;;8.55;5.20;;;21.10;77.60;;;;;;5069588;28;20044;-88
2022/08/17 10:29:11;;;;;;;7.18;4.47;;;21.30;77.40;;;;;;5074390;28;20040;-89
2022/08/17 10:31:51;;;;;;;9.63;5.20;;;21.80;76.50;;;;;;5062591;28;20532;-86
2022/08/17 10:34:22;;;;;;;7.80;4.88;;;21.80;75.90;;;;;;5065662;28;20036;-85
2022/08/17 10:37:16;;;;;;;9.48;4.53;;;21.80;75.80;;;;;;5076430;28;20028;-86
2022/08/17 10:39:58;;;;;;;8.93;4.00;;;21.80;75.90;;;;;;5076697;28;20028;-85
2022/08/17 10:42:32;;;;;;;7.03;3.92;;;21.80;76.00;;;;;;5075147;28;20040;-87
2022/08/17 10:45:02;;;;;;;7.68;4.30;;;21.70;75.80;;;;;;5076040;28;20372;-86
2022/08/17 10:48:02;;;;;;;7.18;4.65;;;21.70;76.20;;;;;;5051334;28;20028;-83
2022/08/17 10:50:46;;;;;;;;;;;21.60;76.20;;;;;;5066395;28;20040;-81
2022/08/17 10:53:35;;;;;;;7.90;4.07;;;21.60;76.00;;;;;;5057516;28;19974;-90
2022/08/17 10:56:13;;;;;;;6.57;4.82;;;21.50;76.20;;;;;;5041940;28;20035;-83
2022/08/17 10:58:45;;;;;;;11.00;5.45;;;21.50;76.50;;;;;;5073794;28;20032;-83
2022/08/17 11:01:11;;;;;;;10.52;5.03;;;21.50;76.40;;;;;;5059321;28;20415;-87
2022/08/17 11:03:52;;;;;;;6.65;4.65;;;21.60;76.90;;;;;;5040949;28;20108;-86
2022/08/17 11:07:00;;;;;;;9.25;5.40;;;21.70;76.60;;;;;;5086460;28;20055;-88
2022/08/17 11:09:45;;;;;;;7.82;5.30;;;21.80;75.80;;;;;;5096681;28;20024;-85
2022/08/17 11:12:37;;;;;;;8.20;5.70;;;21.80;75.70;;;;;;5078607;28;20114;-83
2022/08/17 11:15:11;;;;;;;7.20;4.93;;;22.00;75.90;;;;;;5074921;28;20021;-85
2022/08/17 11:17:40;;;;;;;8.10;4.82;;;22.30;75.50;;;;;;5058972;28;20062;-83
2022/08/17 11:20:44;;;;;;;7.60;5.60;;;22.50;74.90;;;;;;5072626;28;20060;-84
2022/08/17 11:23:22;;;;;;;9.55;5.30;;;22.80;74.30;;;;;;5078798;28;20109;-82
2022/08/17 11:25:53;;;;;;;9.20;5.47;;;22.90;73.40;;;;;;5061693;28;20024;-89
2022/08/17 11:28:34;;;;;;;6.28;4.60;;;23.10;73.10;;;;;;5059644;28;20027;-87
2022/08/17 11:31:28;;;;;;;8.63;4.43;;;23.20;72.10;;;;;;5078993;28;20109;-86
2022/08/17 11:34:03;;;;;;;7.15;4.10;;;23.30;72.20;;;;;;5074134;28;20119;-86
2022/08/17 11:36:50;;;;;;;6.00;4.40;;;23.50;72.00;;;;;;5076840;28;20016;-85
2022/08/17 11:39:19;;;;;;;4.90;3.50;;;23.50;71.80;;;;;;5059934;28;20025;-87
2022/08/17 11:41:58;;;;;;;3.45;2.33;;;23.60;70.40;;;;;;5060067;28;20029;-86
2022/08/17 11:44:44;;;;;;;3.47;2.40;;;23.70;70.30;;;;;;5057145;28;20063;-85
2022/08/17 11:53:00;;;;;;;2.67;1.40;;;23.60;67.90;;;;;;5059089;28;20048;-86
2022/08/17 11:55:33;;;;;;;3.45;2.13;;;23.50;67.50;;;;;;5060444;28;20472;-87
2022/08/17 11:58:19;;;;;;;2.15;1.75;;;23.60;67.90;;;;;;5075681;28;20096;-86
2022/08/17 12:00:44;;;;;;;3.13;1.67;;;23.70;67.50;;;;;;5065039;28;20381;-85
2022/08/17 12:03:30;;;;;;;3.92;2.28;;;23.80;67.70;;;;;;5066862;28;20112;-86
2022/08/17 12:06:26;;;;;;;2.58;1.90;;;24.00;67.50;;;;;;5068233;28;20411;-87
2022/08/17 12:09:20;;;;;;;4.50;2.33;;;24.20;67.80;;;;;;5066891;28;20119;-85
2022/08/17 12:11:49;;;;;;;2.58;1.90;;;24.30;65.30;;;;;;5073565;28;20024;-88
2022/08/17 12:14:21;;;;;;;4.22;2.30;;;24.40;64.70;;;;;;5077507;28;20032;-85
2022/08/17 12:17:05;;;;;;;2.33;1.70;;;24.60;65.20;;;;;;5076072;28;20058;-84
2022/08/17 12:19:32;;;;;;;2.53;1.60;;;24.70;64.50;;;;;;5068612;28;20070;-82
2022/08/17 12:22:24;;;;;;;3.78;1.42;;;25.00;64.30;;;;;;5076075;28;20514;-85
2022/08/17 12:25:18;;;;;;;1.98;1.25;;;25.10;62.60;;;;;;5074824;28;20013;-85
2022/08/17 12:27:47;;;;;;;1.90;1.40;;;25.30;62.10;;;;;;5038681;28;20032;-85
2022/08/17 12:30:18;;;;;;;1.92;1.25;;;25.40;59.20;;;;;;5044775;28;20025;-84
2022/08/17 12:32:47;;;;;;;2.97;1.40;;;25.40;59.90;;;;;;5055127;28;20033;-83
2022/08/17 12:35:28;;;;;;;2.08;1.70;;;25.40;61.40;;;;;;5055391;28;20021;-85
2022/08/17 12:37:56;;;;;;;1.98;1.30;;;25.40;59.40;;;;;;5053029;28;20044;-86
2022/08/17 12:40:28;;;;;;;3.05;1.70;;;25.40;59.50;;;;;;5055245;28;20017;-84
2022/08/17 12:43:05;;;;;;;3.63;1.95;;;25.40;59.80;;;;;;5056990;28;20035;-85
2022/08/17 12:45:33;;;;;;;7.18;3.15;;;25.40;59.80;;;;;;5072407;28;20071;-85
2022/08/17 12:48:06;;;;;;;4.78;2.50;;;25.30;60.60;;;;;;5038897;28;20060;-86
2022/08/17 12:50:38;;;;;;;3.35;2.30;;;25.20;60.20;;;;;;5039220;28;20035;-86
2022/08/17 12:53:14;;;;;;;4.53;2.88;;;25.00;61.90;;;;;;5038808;28;20033;-85
2022/08/17 12:55:43;;;;;;;5.20;3.38;;;24.90;62.10;;;;;;5038789;28;20025;-86
2022/08/17 12:58:18;;;;;;;5.78;3.08;;;24.80;62.60;;;;;;5043128;28;20037;-85
2022/08/17 13:00:48;;;;;;;3.83;2.95;;;24.70;61.90;;;;;;5050805;28;20039;-85
2022/08/17 13:03:20;;;;;;;4.88;3.22;;;24.40;62.60;;;;;;5056439;28;20138;-86
2022/08/17 13:06:08;;;;;;;8.05;3.47;;;24.50;63.40;;;;;;5083660;28;20105;-85
2022/08/17 13:08:39;;;;;;;6.70;3.67;;;24.70;62.90;;;;;;5058179;28;20043;-86
2022/08/17 13:11:09;;;;;;;7.00;3.85;;;24.80;62.90;;;;;;5058678;28;20423;-84
2022/08/17 13:13:38;;;;;;;5.70;3.22;;;24.90;62.20;;;;;;5053879;28;20257;-85
2022/08/17 13:16:03;;;;;;;4.90;3.27;;;25.00;61.50;;;;;;5056269;28;20021;-85
2022/08/17 13:18:37;;;;;;;5.82;3.03;;;25.10;61.50;;;;;;5058288;28;20041;-85
2022/08/17 13:21:05;;;;;;;5.43;3.13;;;25.10;61.80;;;;;;5058501;28;20435;-85
2022/08/17 13:23:32;;;;;;;5.40;3.20;;;25.10;62.40;;;;;;5055566;28;20527;-85
2022/08/17 13:26:07;;;;;;;4.80;2.97;;;24.90;62.30;;;;;;5038766;28;20033;-85
2022/08/17 13:28:35;;;;;;;4.80;2.92;;;24.90;62.40;;;;;;5038410;28;20040;-85
2022/08/17 13:31:26;;;;;;;6.10;2.83;;;24.90;62.30;;;;;;5037964;28;20029;-86
2022/08/17 13:34:23;;;;;;;4.47;2.63;;;24.90;62.30;;;;;;5038098;28;20173;-85
2022/08/17 13:36:51;;;;;;;5.35;2.08;;;25.00;62.10;;;;;;5038003;28;20082;-84
2022/08/17 13:39:21;;;;;;;3.00;2.08;;;25.00;61.60;;;;;;5055935;28;20433;-84
2022/08/17 13:41:48;;;;;;;2.63;1.83;;;25.10;61.40;;;;;;5037480;28;20025;-85
2022/08/17 13:44:38;;;;;;;4.25;2.13;;;25.20;60.70;;;;;;5055539;28;20057;-85
2022/08/17 13:47:14;;;;;;;2.92;1.83;;;25.40;60.40;;;;;;5055830;28;20032;-85
2022/08/17 13:49:40;;;;;;;2.28;1.55;;;25.60;59.90;;;;;;5037945;28;20033;-85